createdAt,value
2018-03-28T00:00:23.600Z,8.34
2018-03-28T00:01:23.594Z,8.30
2018-03-28T00:02:23.555Z,8.16
2018-03-28T00:03:23.533Z,8.28
2018-03-28T00:04:23.520Z,8.18
2018-03-28T00:05:23.481Z,8.13
2018-03-28T00:06:23.449Z,8.12
2018-03-28T00:07:23.418Z,8.05
2018-03-28T00:08:23.399Z,8.06
2018-03-28T00:09:23.371Z,8.09
2018-03-28T00:10:23.343Z,8.05
2018-03-28T00:11:23.322Z,8.03
2018-03-28T00:12:23.289Z,8.00
2018-03-28T00:13:23.264Z,7.93
2018-03-28T00:14:23.237Z,7.95
2018-03-28T00:15:23.209Z,7.98
2018-03-28T00:16:23.184Z,7.97
2018-03-28T00:17:23.158Z,8.06
2018-03-28T00:18:23.126Z,8.00
2018-03-28T00:19:23.936Z,8.03
2018-03-28T00:20:23.074Z,7.97
2018-03-28T00:21:23.054Z,7.98
2018-03-28T00:22:23.017Z,7.88
2018-03-28T00:23:22.998Z,7.90
2018-03-28T00:24:22.963Z,7.98
2018-03-28T00:25:22.939Z,7.98
2018-03-28T00:26:22.910Z,7.79
2018-03-28T00:27:22.886Z,7.94
2018-03-28T00:28:22.861Z,7.87
2018-03-28T00:29:22.830Z,7.88
2018-03-28T00:30:22.808Z,7.83
2018-03-28T00:31:22.788Z,7.93
2018-03-28T00:32:22.752Z,7.83
2018-03-28T00:33:22.737Z,7.88
2018-03-28T00:34:22.697Z,7.94
2018-03-28T00:35:22.673Z,7.87
2018-03-28T00:36:22.650Z,7.85
2018-03-28T00:37:22.616Z,7.85
2018-03-28T00:38:22.592Z,7.95
2018-03-28T00:39:22.732Z,8.01
2018-03-28T00:40:22.915Z,7.98
2018-03-28T00:41:22.926Z,7.98
2018-03-28T00:42:23.024Z,7.94
2018-03-28T00:43:22.826Z,8.03
2018-03-28T00:44:22.425Z,8.06
2018-03-28T00:45:22.403Z,8.09
2018-03-28T00:46:22.369Z,8.09
2018-03-28T00:47:22.350Z,8.10
2018-03-28T00:48:22.325Z,8.09
2018-03-28T00:49:22.297Z,8.12
2018-03-28T00:50:22.281Z,8.13
2018-03-28T00:51:22.243Z,8.05
2018-03-28T00:52:22.214Z,8.08
2018-03-28T00:53:22.196Z,8.10
2018-03-28T00:54:22.161Z,8.26
2018-03-28T00:55:22.135Z,8.15
2018-03-28T00:56:22.163Z,8.30
2018-03-28T00:57:22.085Z,8.19
2018-03-28T00:58:22.050Z,8.24
2018-03-28T00:59:22.026Z,8.20
2018-03-28T01:00:22.002Z,8.28
2018-03-28T01:01:21.975Z,8.24
2018-03-28T01:02:21.943Z,8.20
2018-03-28T01:03:21.924Z,8.19
2018-03-28T01:04:21.889Z,8.30
2018-03-28T01:05:21.863Z,8.33
2018-03-28T01:06:21.837Z,8.41
2018-03-28T01:07:21.817Z,8.38
2018-03-28T01:08:21.786Z,8.44
2018-03-28T01:09:21.756Z,8.45
2018-03-28T01:10:21.734Z,8.44
2018-03-28T01:11:21.713Z,8.49
2018-03-28T01:12:21.682Z,8.45
2018-03-28T01:13:21.656Z,8.37
2018-03-28T01:14:21.624Z,8.42
2018-03-28T01:15:21.610Z,8.53
2018-03-28T01:16:21.572Z,8.52
2018-03-28T01:17:21.562Z,8.53
2018-03-28T01:18:21.518Z,8.52
2018-03-28T01:19:21.492Z,8.56
2018-03-28T01:20:21.462Z,8.60
2018-03-28T01:21:21.435Z,8.55
2018-03-28T01:22:21.412Z,8.53
2018-03-28T01:23:21.389Z,8.52
2018-03-28T01:24:21.354Z,8.46
2018-03-28T01:25:21.357Z,8.41
2018-03-28T01:26:21.303Z,8.51
2018-03-28T01:27:21.279Z,8.36
2018-03-28T01:28:21.251Z,8.44
2018-03-28T01:29:21.224Z,8.38
2018-03-28T01:30:21.194Z,8.41
2018-03-28T01:31:21.172Z,8.46
2018-03-28T01:32:21.150Z,8.45
2018-03-28T01:33:21.130Z,8.45
2018-03-28T01:34:21.089Z,8.45
2018-03-28T01:35:21.058Z,8.37
2018-03-28T01:36:21.041Z,8.55
2018-03-28T01:37:21.018Z,8.34
2018-03-28T01:38:20.980Z,8.49
2018-03-28T01:39:20.958Z,8.41
2018-03-28T01:40:20.933Z,8.42
2018-03-28T01:41:20.908Z,8.34
2018-03-28T01:42:20.875Z,8.38
2018-03-28T01:43:20.850Z,8.30
2018-03-28T01:44:20.827Z,8.36
2018-03-28T01:45:20.802Z,8.44
2018-03-28T01:46:20.776Z,8.42
2018-03-28T01:47:20.742Z,8.38
2018-03-28T01:48:20.717Z,8.37
2018-03-28T01:49:20.682Z,8.34
2018-03-28T01:50:20.664Z,8.37
2018-03-28T01:51:20.634Z,8.26
2018-03-28T01:52:20.606Z,8.26
2018-03-28T01:53:20.577Z,8.30
2018-03-28T01:54:20.562Z,8.30
2018-03-28T01:55:20.526Z,8.19
2018-03-28T01:56:20.503Z,8.19
2018-03-28T01:57:20.477Z,8.23
2018-03-28T01:58:20.451Z,8.18
2018-03-28T01:59:20.421Z,8.23
2018-03-28T02:00:20.398Z,8.24
2018-03-28T02:01:20.368Z,8.27
2018-03-28T02:02:20.346Z,8.23
2018-03-28T02:03:20.321Z,8.16
2018-03-28T02:04:20.289Z,8.12
2018-03-28T02:05:20.258Z,8.24
2018-03-28T02:06:20.235Z,8.13
2018-03-28T02:07:20.217Z,8.12
2018-03-28T02:08:20.180Z,8.10
2018-03-28T02:09:20.156Z,8.09
2018-03-28T02:10:20.123Z,8.05
2018-03-28T02:11:20.105Z,8.10
2018-03-28T02:12:20.075Z,8.01
2018-03-28T02:13:20.042Z,8.06
2018-03-28T02:14:20.032Z,8.03
2018-03-28T02:15:19.999Z,8.08
2018-03-28T02:16:19.967Z,8.12
2018-03-28T02:17:19.946Z,8.10
2018-03-28T02:18:19.907Z,8.13
2018-03-28T02:19:19.889Z,8.10
2018-03-28T02:20:19.861Z,8.10
2018-03-28T02:21:19.831Z,8.15
2018-03-28T02:22:19.810Z,8.08
2018-03-28T02:23:19.773Z,8.05
2018-03-28T02:24:19.758Z,8.06
2018-03-28T02:25:19.721Z,8.12
2018-03-28T02:26:19.695Z,8.12
2018-03-28T02:27:19.675Z,8.09
2018-03-28T02:28:19.641Z,8.09
2018-03-28T02:29:19.617Z,8.12
2018-03-28T02:30:19.596Z,7.98
2018-03-28T02:31:19.564Z,8.01
2018-03-28T02:32:19.532Z,8.05
2018-03-28T02:33:19.513Z,8.05
2018-03-28T02:34:19.482Z,8.13
2018-03-28T02:35:19.454Z,8.13
2018-03-28T02:36:19.427Z,8.08
2018-03-28T02:37:19.399Z,8.10
2018-03-28T02:38:19.381Z,8.12
2018-03-28T02:39:19.352Z,8.06
2018-03-28T02:40:19.320Z,8.00
2018-03-28T02:41:19.296Z,8.06
2018-03-28T02:42:19.266Z,8.05
2018-03-28T02:43:19.240Z,8.09
2018-03-28T02:44:19.217Z,8.08
2018-03-28T02:45:19.216Z,8.08
2018-03-28T02:46:19.164Z,8.13
2018-03-28T02:47:19.131Z,8.03
2018-03-28T02:48:19.108Z,8.09
2018-03-28T02:49:19.081Z,8.10
2018-03-28T02:50:19.056Z,8.08
2018-03-28T02:51:19.022Z,8.09
2018-03-28T02:52:19.005Z,8.15
2018-03-28T02:53:18.984Z,8.13
2018-03-28T02:54:18.947Z,8.15
2018-03-28T02:55:18.922Z,8.09
2018-03-28T02:56:18.926Z,8.16
2018-03-28T02:57:18.862Z,8.24
2018-03-28T02:58:18.842Z,8.27
2018-03-28T02:59:18.812Z,8.28
2018-03-28T03:00:18.784Z,8.30
2018-03-28T03:01:18.764Z,8.34
2018-03-28T03:02:18.733Z,8.27
2018-03-28T03:03:18.702Z,8.23
2018-03-28T03:04:18.674Z,8.27
2018-03-28T03:05:18.649Z,8.31
2018-03-28T03:06:18.626Z,8.23
2018-03-28T03:07:18.617Z,8.31
2018-03-28T03:08:18.568Z,8.27
2018-03-28T03:09:18.545Z,8.30
2018-03-28T03:10:18.529Z,8.33
2018-03-28T03:11:18.485Z,8.27
2018-03-28T03:12:18.462Z,8.28
2018-03-28T03:13:18.441Z,8.28
2018-03-28T03:14:18.408Z,8.30
2018-03-28T03:15:18.379Z,8.37
2018-03-28T03:16:18.363Z,8.36
2018-03-28T03:17:18.333Z,8.41
2018-03-28T03:18:18.302Z,8.42
2018-03-28T03:19:18.271Z,8.42
2018-03-28T03:20:18.248Z,8.45
2018-03-28T03:21:18.229Z,8.26
2018-03-28T03:22:18.189Z,8.33
2018-03-28T03:23:18.171Z,8.41
2018-03-28T03:24:18.137Z,8.34
2018-03-28T03:25:18.114Z,8.28
2018-03-28T03:26:18.091Z,8.27
2018-03-28T03:27:18.056Z,8.31
2018-03-28T03:28:18.035Z,8.33
2018-03-28T03:29:18.007Z,8.34
2018-03-28T03:30:17.981Z,8.33
2018-03-28T03:31:17.960Z,8.30
2018-03-28T03:32:17.922Z,8.36
2018-03-28T03:33:17.902Z,8.30
2018-03-28T03:34:17.878Z,8.30
2018-03-28T03:35:17.848Z,8.31
2018-03-28T03:36:17.819Z,8.30
2018-03-28T03:37:17.793Z,8.24
2018-03-28T03:38:17.765Z,8.34
2018-03-28T03:39:17.742Z,8.33
2018-03-28T03:40:17.729Z,8.46
2018-03-28T03:41:17.684Z,8.30
2018-03-28T03:42:17.662Z,8.34
2018-03-28T03:43:17.632Z,8.36
2018-03-28T03:44:17.604Z,8.41
2018-03-28T03:45:17.581Z,8.30
2018-03-28T03:46:17.557Z,8.33
2018-03-28T03:47:17.524Z,8.37
2018-03-28T03:48:17.493Z,8.38
2018-03-28T03:49:17.479Z,8.45
2018-03-28T03:50:17.446Z,8.46
2018-03-28T03:51:17.415Z,8.42
2018-03-28T03:52:17.393Z,8.37
2018-03-28T03:53:17.360Z,8.44
2018-03-28T03:54:17.344Z,8.42
2018-03-28T03:55:17.320Z,8.44
2018-03-28T03:56:17.277Z,8.34
2018-03-28T03:57:17.259Z,8.36
2018-03-28T03:58:17.226Z,8.42
2018-03-28T03:59:17.213Z,8.37
2018-03-28T04:00:17.179Z,8.28
2018-03-28T04:01:17.149Z,8.24
2018-03-28T04:02:17.120Z,8.33
2018-03-28T04:03:17.098Z,8.31
2018-03-28T04:04:17.070Z,8.28
2018-03-28T04:05:17.041Z,8.27
2018-03-28T04:06:17.018Z,8.27
2018-03-28T04:07:16.993Z,8.28
2018-03-28T04:08:16.964Z,8.27
2018-03-28T04:09:16.942Z,8.24
2018-03-28T04:10:16.904Z,8.23
2018-03-28T04:11:16.875Z,8.27
2018-03-28T04:12:16.861Z,8.28
2018-03-28T04:13:16.826Z,8.16
2018-03-28T04:14:16.808Z,8.19
2018-03-28T04:15:16.771Z,8.19
2018-03-28T04:16:16.756Z,8.28
2018-03-28T04:17:16.714Z,8.30
2018-03-28T04:18:16.692Z,8.28
2018-03-28T04:19:16.677Z,8.26
2018-03-28T04:20:16.645Z,8.30
2018-03-28T04:21:16.616Z,8.28
2018-03-28T04:22:16.648Z,8.24
2018-03-28T04:23:16.644Z,8.34
2018-03-28T04:24:16.592Z,8.26
2018-03-28T04:25:16.545Z,8.27
2018-03-28T04:26:16.548Z,8.19
2018-03-28T04:27:16.554Z,8.19
2018-03-28T04:28:16.487Z,8.23
2018-03-28T04:29:16.446Z,8.26
2018-03-28T04:30:16.414Z,8.13
2018-03-28T04:31:16.347Z,8.18
2018-03-28T04:32:16.317Z,8.18
2018-03-28T04:33:16.309Z,8.15
2018-03-28T04:34:16.311Z,8.12
2018-03-28T04:35:16.313Z,8.10
2018-03-28T04:36:16.216Z,8.18
2018-03-28T04:37:16.187Z,8.18
2018-03-28T04:38:16.154Z,8.10
2018-03-28T04:39:16.135Z,8.13
2018-03-28T04:40:16.109Z,8.13
2018-03-28T04:41:16.078Z,8.12
2018-03-28T04:42:16.048Z,8.09
2018-03-28T04:43:16.020Z,8.12
2018-03-28T04:44:16.006Z,8.10
2018-03-28T04:45:15.976Z,8.12
2018-03-28T04:46:15.941Z,8.10
2018-03-28T04:47:15.915Z,8.12
2018-03-28T04:48:15.888Z,8.09
2018-03-28T04:49:15.862Z,8.08
2018-03-28T04:50:15.834Z,8.15
2018-03-28T04:51:15.812Z,8.05
2018-03-28T04:52:15.787Z,8.03
2018-03-28T04:53:15.758Z,8.00
2018-03-28T04:54:15.731Z,8.01
2018-03-28T04:55:15.703Z,8.06
2018-03-28T04:56:15.678Z,8.08
2018-03-28T04:57:15.648Z,8.12
2018-03-28T04:58:15.631Z,8.06
2018-03-28T04:59:15.602Z,8.12
2018-03-28T05:00:15.568Z,8.12
2018-03-28T05:01:15.545Z,8.03
2018-03-28T05:02:15.510Z,8.05
2018-03-28T05:03:15.486Z,8.09
2018-03-28T05:04:15.494Z,8.06
2018-03-28T05:05:15.440Z,8.03
2018-03-28T05:06:15.400Z,7.98
2018-03-28T05:07:15.380Z,8.10
2018-03-28T05:08:15.360Z,8.15
2018-03-28T05:09:15.327Z,8.15
2018-03-28T05:10:15.310Z,8.15
2018-03-28T05:11:15.272Z,8.09
2018-03-28T05:12:15.242Z,8.09
2018-03-28T05:13:15.220Z,8.12
2018-03-28T05:14:15.189Z,8.09
2018-03-28T05:15:15.162Z,8.09
2018-03-28T05:16:15.144Z,8.10
2018-03-28T05:17:15.106Z,8.08
2018-03-28T05:18:15.092Z,8.06
2018-03-28T05:19:15.063Z,8.13
2018-03-28T05:20:15.030Z,8.13
2018-03-28T05:21:15.004Z,8.12
2018-03-28T05:22:14.984Z,8.01
2018-03-28T05:23:14.951Z,8.05
2018-03-28T05:24:14.919Z,8.10
2018-03-28T05:25:14.896Z,8.23
2018-03-28T05:26:14.875Z,8.26
2018-03-28T05:27:14.844Z,8.18
2018-03-28T05:28:14.812Z,8.13
2018-03-28T05:29:14.787Z,8.09
2018-03-28T05:30:14.765Z,8.13
2018-03-28T05:31:14.737Z,8.09
2018-03-28T05:32:14.700Z,8.10
2018-03-28T05:33:14.687Z,8.12
2018-03-28T05:34:14.652Z,8.08
2018-03-28T05:35:14.627Z,8.26
2018-03-28T05:36:14.608Z,8.18
2018-03-28T05:37:14.585Z,8.13
2018-03-28T05:38:14.547Z,8.10
2018-03-28T05:39:14.516Z,8.16
2018-03-28T05:40:14.496Z,8.05
2018-03-28T05:41:14.467Z,8.05
2018-03-28T05:42:14.444Z,8.06
2018-03-28T05:43:14.411Z,8.13
2018-03-28T05:44:14.383Z,8.10
2018-03-28T05:45:14.358Z,8.12
2018-03-28T05:46:14.324Z,8.13
2018-03-28T05:47:14.299Z,8.09
2018-03-28T05:48:14.301Z,8.13
2018-03-28T05:49:14.252Z,8.09
2018-03-28T05:50:14.222Z,8.05
2018-03-28T05:51:14.191Z,8.01
2018-03-28T05:52:14.169Z,8.05
2018-03-28T05:53:14.141Z,8.10
2018-03-28T05:54:14.122Z,8.08
2018-03-28T05:55:14.085Z,8.03
2018-03-28T05:56:14.060Z,7.98
2018-03-28T05:57:14.063Z,8.05
2018-03-28T05:58:14.005Z,7.98
2018-03-28T05:59:13.979Z,7.98
2018-03-28T06:00:13.956Z,8.03
2018-03-28T06:01:13.927Z,7.90
2018-03-28T06:02:13.901Z,7.90
2018-03-28T06:03:13.899Z,7.87
2018-03-28T06:04:13.844Z,7.83
2018-03-28T06:05:13.813Z,7.80
2018-03-28T06:06:13.791Z,7.90
2018-03-28T06:07:13.760Z,7.88
2018-03-28T06:08:13.741Z,8.01
2018-03-28T06:09:13.719Z,7.91
2018-03-28T06:10:13.678Z,8.03
2018-03-28T06:11:13.655Z,7.93
2018-03-28T06:12:13.630Z,7.97
2018-03-28T06:13:13.599Z,8.01
2018-03-28T06:14:13.579Z,7.94
2018-03-28T06:15:13.551Z,8.01
2018-03-28T06:16:13.520Z,8.00
2018-03-28T06:17:13.495Z,7.93
2018-03-28T06:18:13.460Z,7.90
2018-03-28T06:19:13.435Z,8.00
2018-03-28T06:20:13.421Z,7.88
2018-03-28T06:21:13.387Z,7.88
2018-03-28T06:22:13.365Z,7.93
2018-03-28T06:23:13.334Z,8.00
2018-03-28T06:24:13.339Z,8.06
2018-03-28T06:25:13.280Z,8.03
2018-03-28T06:26:13.265Z,7.95
2018-03-28T06:27:13.228Z,7.94
2018-03-28T06:28:13.193Z,8.03
2018-03-28T06:29:13.177Z,8.00
2018-03-28T06:30:13.141Z,7.98
2018-03-28T06:31:13.113Z,8.03
2018-03-28T06:32:13.095Z,8.01
2018-03-28T06:33:13.062Z,8.03
2018-03-28T06:34:13.039Z,8.12
2018-03-28T06:35:13.013Z,8.08
2018-03-28T06:36:13.007Z,8.06
2018-03-28T06:37:12.950Z,7.98
2018-03-28T06:38:12.937Z,8.05
2018-03-28T06:39:12.906Z,8.05
2018-03-28T06:40:12.874Z,8.09
2018-03-28T06:41:12.854Z,8.09
2018-03-28T06:42:12.821Z,8.12
2018-03-28T06:43:12.805Z,8.15
2018-03-28T06:44:12.763Z,8.10
2018-03-28T06:45:12.747Z,8.13
2018-03-28T06:46:12.721Z,8.10
2018-03-28T06:47:12.692Z,8.12
2018-03-28T06:48:12.661Z,8.09
2018-03-28T06:49:12.632Z,8.08
2018-03-28T06:50:12.607Z,8.09
2018-03-28T06:51:12.581Z,8.18
2018-03-28T06:52:12.554Z,8.16
2018-03-28T06:53:12.522Z,8.15
2018-03-28T06:54:12.502Z,8.18
2018-03-28T06:55:12.475Z,8.23
2018-03-28T06:56:12.453Z,8.08
2018-03-28T06:57:12.421Z,8.15
2018-03-28T06:58:12.402Z,8.15
2018-03-28T06:59:12.362Z,8.13
2018-03-28T07:00:12.343Z,8.23
2018-03-28T07:01:12.312Z,8.15
2018-03-28T07:02:12.285Z,8.13
2018-03-28T07:03:12.258Z,8.13
2018-03-28T07:04:12.236Z,8.24
2018-03-28T07:05:12.206Z,8.30
2018-03-28T07:06:12.179Z,8.28
2018-03-28T07:07:12.153Z,8.27
2018-03-28T07:08:12.119Z,8.24
2018-03-28T07:09:12.093Z,8.18
2018-03-28T07:10:12.069Z,8.20
2018-03-28T07:11:12.060Z,8.20
2018-03-28T07:12:12.018Z,8.27
2018-03-28T07:13:11.990Z,8.28
2018-03-28T07:14:11.966Z,8.28
2018-03-28T07:15:11.940Z,8.20
2018-03-28T07:16:11.907Z,8.18
2018-03-28T07:17:11.877Z,8.23
2018-03-28T07:18:11.865Z,8.23
2018-03-28T07:19:11.838Z,8.18
2018-03-28T07:20:11.800Z,8.28
2018-03-28T07:21:11.777Z,8.27
2018-03-28T07:22:11.744Z,8.24
2018-03-28T07:23:11.724Z,8.45
2018-03-28T07:24:11.700Z,8.42
2018-03-28T07:25:11.678Z,8.55
2018-03-28T07:26:11.644Z,8.44
2018-03-28T07:27:11.612Z,8.51
2018-03-28T07:28:11.583Z,8.42
2018-03-28T07:29:11.563Z,8.48
2018-03-28T07:30:11.531Z,8.58
2018-03-28T07:31:11.505Z,8.51
2018-03-28T07:32:11.475Z,8.69
2018-03-28T07:33:11.458Z,8.63
2018-03-28T07:34:11.432Z,8.61
2018-03-28T07:35:11.393Z,8.63
2018-03-28T07:36:11.381Z,8.67
2018-03-28T07:37:11.350Z,8.71
2018-03-28T07:38:11.322Z,8.73
2018-03-28T07:39:11.287Z,8.88
2018-03-28T07:40:11.271Z,8.82
2018-03-28T07:41:11.238Z,9.00
2018-03-28T07:42:11.213Z,9.04
2018-03-28T07:43:11.184Z,9.06
2018-03-28T07:44:11.159Z,9.16
2018-03-28T07:45:11.130Z,9.23
2018-03-28T07:46:11.103Z,9.14
2018-03-28T07:47:11.074Z,9.08
2018-03-28T07:48:11.062Z,9.19
2018-03-28T07:49:11.028Z,9.22
2018-03-28T07:50:11.004Z,9.26
2018-03-28T07:51:10.980Z,9.28
2018-03-28T07:52:10.943Z,9.34
2018-03-28T07:53:10.915Z,9.29
2018-03-28T07:54:10.901Z,9.36
2018-03-28T07:55:10.872Z,9.25
2018-03-28T07:56:10.835Z,9.25
2018-03-28T07:57:10.811Z,9.29
2018-03-28T07:58:10.794Z,9.32
2018-03-28T07:59:10.760Z,9.29
2018-03-28T08:00:10.745Z,9.41
2018-03-28T08:01:10.700Z,9.43
2018-03-28T08:02:10.679Z,9.47
2018-03-28T08:03:10.662Z,9.46
2018-03-28T08:04:10.626Z,9.47
2018-03-28T08:05:10.603Z,9.43
2018-03-28T08:06:10.581Z,9.46
2018-03-28T08:07:10.556Z,9.48
2018-03-28T08:08:10.530Z,9.54
2018-03-28T08:09:10.494Z,9.54
2018-03-28T08:10:10.472Z,9.48
2018-03-28T08:11:10.441Z,9.61
2018-03-28T08:12:10.421Z,9.65
2018-03-28T08:13:10.394Z,9.79
2018-03-28T08:14:10.383Z,9.76
2018-03-28T08:15:10.343Z,9.79
2018-03-28T08:16:10.316Z,9.69
2018-03-28T08:17:10.284Z,9.83
2018-03-28T08:18:10.258Z,9.84
2018-03-28T08:19:10.277Z,9.83
2018-03-28T08:20:10.211Z,9.89
2018-03-28T08:21:10.187Z,9.83
2018-03-28T08:22:10.153Z,9.73
2018-03-28T08:23:10.131Z,9.83
2018-03-28T08:24:10.106Z,9.83
2018-03-28T08:25:10.069Z,9.84
2018-03-28T08:26:10.058Z,9.97
2018-03-28T08:27:10.027Z,9.94
2018-03-28T08:28:09.998Z,9.97
2018-03-28T08:29:09.992Z,9.97
2018-03-28T08:30:09.951Z,10.02
2018-03-28T08:31:09.921Z,10.15
2018-03-28T08:32:09.897Z,10.26
2018-03-28T08:33:09.869Z,10.38
2018-03-28T08:34:09.840Z,10.22
2018-03-28T08:35:09.814Z,10.25
2018-03-28T08:36:09.792Z,10.17
2018-03-28T08:37:09.772Z,10.23
2018-03-28T08:38:09.733Z,10.28
2018-03-28T08:39:09.711Z,10.23
2018-03-28T08:40:09.678Z,10.28
2018-03-28T08:41:09.667Z,10.33
2018-03-28T08:42:09.627Z,10.30
2018-03-28T08:43:09.610Z,10.25
2018-03-28T08:44:09.588Z,10.26
2018-03-28T08:45:09.558Z,10.42
2018-03-28T08:46:09.533Z,10.38
2018-03-28T08:47:09.505Z,10.48
2018-03-28T08:48:09.481Z,10.41
2018-03-28T08:49:09.449Z,10.51
2018-03-28T08:50:09.429Z,10.46
2018-03-28T08:51:09.409Z,10.53
2018-03-28T08:52:09.426Z,10.51
2018-03-28T08:53:09.353Z,10.44
2018-03-28T08:54:09.314Z,10.51
2018-03-28T08:55:09.299Z,10.46
2018-03-28T08:56:09.271Z,10.49
2018-03-28T08:57:09.241Z,10.38
2018-03-28T08:58:09.219Z,10.53
2018-03-28T08:59:09.188Z,10.56
2018-03-28T09:00:09.164Z,10.59
2018-03-28T09:01:09.139Z,10.54
2018-03-28T09:02:09.107Z,10.48
2018-03-28T09:03:09.098Z,10.61
2018-03-28T09:04:09.056Z,10.61
2018-03-28T09:05:09.038Z,10.63
2018-03-28T09:06:09.012Z,10.68
2018-03-28T09:07:08.982Z,10.54
2018-03-28T09:08:08.963Z,10.60
2018-03-28T09:09:08.934Z,10.63
2018-03-28T09:10:08.916Z,10.57
2018-03-28T09:11:08.889Z,10.51
2018-03-28T09:12:08.856Z,10.54
2018-03-28T09:13:08.831Z,10.54
2018-03-28T09:14:08.808Z,10.51
2018-03-28T09:15:08.771Z,10.54
2018-03-28T09:16:08.755Z,10.56
2018-03-28T09:17:08.731Z,10.54
2018-03-28T09:18:08.709Z,10.51
2018-03-28T09:19:08.687Z,10.53
2018-03-28T09:20:08.649Z,10.57
2018-03-28T09:21:08.627Z,10.61
2018-03-28T09:22:08.596Z,10.63
2018-03-28T09:23:08.579Z,10.64
2018-03-28T09:24:08.540Z,10.74
2018-03-28T09:25:08.528Z,10.60
2018-03-28T09:26:08.549Z,10.64
2018-03-28T09:27:08.474Z,10.64
2018-03-28T09:28:08.452Z,10.59
2018-03-28T09:29:08.421Z,10.75
2018-03-28T09:30:08.392Z,10.86
2018-03-28T09:31:08.363Z,10.90
2018-03-28T09:32:08.344Z,11.00
2018-03-28T09:33:08.312Z,11.05
2018-03-28T09:34:08.286Z,10.92
2018-03-28T09:35:08.261Z,10.93
2018-03-28T09:36:08.242Z,10.94
2018-03-28T09:37:08.226Z,10.90
2018-03-28T09:38:08.183Z,10.78
2018-03-28T09:39:08.212Z,10.89
2018-03-28T09:40:08.142Z,10.93
2018-03-28T09:41:08.113Z,10.84
2018-03-28T09:42:08.085Z,10.89
2018-03-28T09:43:08.067Z,10.92
2018-03-28T09:44:08.046Z,10.79
2018-03-28T09:45:08.027Z,10.68
2018-03-28T09:46:07.983Z,10.72
2018-03-28T09:47:07.950Z,10.79
2018-03-28T09:48:07.933Z,10.78
2018-03-28T09:49:07.901Z,10.76
2018-03-28T09:50:07.878Z,10.89
2018-03-28T09:51:07.848Z,10.87
2018-03-28T09:52:07.843Z,10.86
2018-03-28T09:53:07.800Z,10.74
2018-03-28T09:54:07.777Z,10.75
2018-03-28T09:55:07.752Z,10.79
2018-03-28T09:56:07.771Z,10.82
2018-03-28T09:57:07.733Z,10.68
2018-03-28T09:58:07.668Z,10.68
2018-03-28T09:59:07.644Z,10.60
2018-03-28T10:00:07.628Z,10.61
2018-03-28T10:01:07.600Z,10.51
2018-03-28T10:02:07.567Z,10.49
2018-03-28T10:03:07.544Z,10.48
2018-03-28T10:04:07.516Z,10.48
2018-03-28T10:05:07.494Z,10.54
2018-03-28T10:06:07.457Z,10.61
2018-03-28T10:07:07.448Z,10.57
2018-03-28T10:08:07.411Z,10.49
2018-03-28T10:09:07.394Z,10.51
2018-03-28T10:10:07.361Z,10.59
2018-03-28T10:11:07.331Z,10.59
2018-03-28T10:12:07.312Z,10.60
2018-03-28T10:13:07.281Z,10.68
2018-03-28T10:14:07.261Z,10.61
2018-03-28T10:15:07.236Z,10.60
2018-03-28T10:16:07.202Z,10.63
2018-03-28T10:17:07.185Z,10.63
2018-03-28T10:18:07.196Z,10.49
2018-03-28T10:19:07.127Z,10.51
2018-03-28T10:20:07.105Z,10.41
2018-03-28T10:21:07.080Z,10.56
2018-03-28T10:22:07.056Z,10.49
2018-03-28T10:23:07.019Z,10.42
2018-03-28T10:24:07.004Z,10.37
2018-03-28T10:25:06.973Z,10.40
2018-03-28T10:26:06.948Z,10.37
2018-03-28T10:27:06.922Z,10.38
2018-03-28T10:28:06.899Z,10.35
2018-03-28T10:29:06.862Z,10.42
2018-03-28T10:30:06.847Z,10.40
2018-03-28T10:31:06.816Z,10.40
2018-03-28T10:32:06.795Z,10.42
2018-03-28T10:33:06.768Z,10.41
2018-03-28T10:34:06.739Z,10.34
2018-03-28T10:35:06.754Z,10.40
2018-03-28T10:36:06.685Z,10.42
2018-03-28T10:37:06.662Z,10.48
2018-03-28T10:38:06.633Z,10.49
2018-03-28T10:39:06.618Z,10.37
2018-03-28T10:40:06.593Z,10.56
2018-03-28T10:41:06.559Z,10.59
2018-03-28T10:42:06.530Z,10.61
2018-03-28T10:43:06.508Z,10.64
2018-03-28T10:44:06.479Z,10.64
2018-03-28T10:45:06.452Z,10.79
2018-03-28T10:46:06.429Z,10.87
2018-03-28T10:47:06.394Z,10.87
2018-03-28T10:48:06.379Z,11.00
2018-03-28T10:49:06.352Z,11.00
2018-03-28T10:50:06.315Z,10.94
2018-03-28T10:51:06.299Z,11.04
2018-03-28T10:52:06.281Z,10.94
2018-03-28T10:53:06.239Z,11.00
2018-03-28T10:54:06.222Z,10.97
2018-03-28T10:55:06.186Z,11.05
2018-03-28T10:56:06.246Z,10.97
2018-03-28T10:57:06.138Z,11.00
2018-03-28T10:58:06.113Z,11.02
2018-03-28T10:59:06.098Z,11.05
2018-03-28T11:00:06.061Z,11.11
2018-03-28T11:01:06.036Z,11.25
2018-03-28T11:02:06.012Z,11.22
2018-03-28T11:03:05.990Z,11.32
2018-03-28T11:04:05.955Z,11.29
2018-03-28T11:05:05.948Z,11.44
2018-03-28T11:06:05.909Z,11.25
2018-03-28T11:07:05.881Z,11.27
2018-03-28T11:08:05.856Z,11.33
2018-03-28T11:09:05.832Z,11.26
2018-03-28T11:10:05.806Z,11.25
2018-03-28T11:11:05.788Z,11.27
2018-03-28T11:12:05.754Z,11.25
2018-03-28T11:13:05.737Z,11.27
2018-03-28T11:14:05.695Z,11.36
2018-03-28T11:15:05.672Z,11.44
2018-03-28T11:16:05.662Z,11.45
2018-03-28T11:17:05.620Z,11.57
2018-03-28T11:18:05.604Z,11.57
2018-03-28T11:19:05.578Z,11.65
2018-03-28T11:20:05.550Z,11.60
2018-03-28T11:21:05.526Z,11.60
2018-03-28T11:22:05.490Z,11.69
2018-03-28T11:23:05.476Z,11.77
2018-03-28T11:24:05.444Z,11.70
2018-03-28T11:25:05.419Z,11.75
2018-03-28T11:26:05.406Z,11.70
2018-03-28T11:27:05.363Z,11.65
2018-03-28T11:28:05.347Z,11.70
2018-03-28T11:29:05.319Z,11.69
2018-03-28T11:30:05.305Z,11.63
2018-03-28T11:31:05.268Z,11.57
2018-03-28T11:32:05.242Z,11.60
2018-03-28T11:33:05.218Z,11.54
2018-03-28T11:34:05.191Z,11.60
2018-03-28T11:35:05.160Z,11.57
2018-03-28T11:36:05.142Z,11.55
2018-03-28T11:37:05.108Z,11.60
2018-03-28T11:38:05.102Z,11.59
2018-03-28T11:39:05.062Z,11.44
2018-03-28T11:40:05.039Z,11.47
2018-03-28T11:41:05.020Z,11.54
2018-03-28T11:42:04.983Z,11.59
2018-03-28T11:43:04.972Z,11.60
2018-03-28T11:44:04.936Z,11.69
2018-03-28T11:45:04.914Z,11.73
2018-03-28T11:46:04.885Z,11.59
2018-03-28T11:47:04.864Z,11.52
2018-03-28T11:48:04.846Z,11.51
2018-03-28T11:49:04.809Z,11.44
2018-03-28T11:50:04.790Z,11.62
2018-03-28T11:51:04.756Z,11.66
2018-03-28T11:52:04.738Z,11.75
2018-03-28T11:53:04.807Z,11.75
2018-03-28T11:54:04.686Z,11.83
2018-03-28T11:55:04.663Z,11.54
2018-03-28T11:56:04.634Z,11.33
2018-03-28T11:57:04.606Z,11.27
2018-03-28T11:58:04.585Z,11.17
2018-03-28T11:59:04.555Z,11.23
2018-03-28T12:00:04.538Z,11.22
2018-03-28T12:01:04.515Z,11.11
2018-03-28T12:02:04.487Z,11.14
2018-03-28T12:03:04.457Z,11.22
2018-03-28T12:04:04.427Z,11.23
2018-03-28T12:05:04.401Z,11.15
2018-03-28T12:06:04.377Z,11.08
2018-03-28T12:07:04.353Z,11.18
2018-03-28T12:08:04.331Z,11.26
2018-03-28T12:09:04.334Z,11.25
2018-03-28T12:10:04.283Z,11.26
2018-03-28T12:11:04.254Z,11.18
2018-03-28T12:12:04.215Z,11.25
2018-03-28T12:13:04.202Z,11.22
2018-03-28T12:14:04.171Z,11.27
2018-03-28T12:15:04.154Z,11.23
2018-03-28T12:16:04.186Z,11.36
2018-03-28T12:17:04.099Z,11.51
2018-03-28T12:18:04.063Z,11.45
2018-03-28T12:19:04.062Z,11.40
2018-03-28T12:20:04.021Z,11.37
2018-03-28T12:21:04.016Z,11.40
2018-03-28T12:22:03.970Z,11.43
2018-03-28T12:23:03.944Z,11.47
2018-03-28T12:24:03.923Z,11.57
2018-03-28T12:25:03.924Z,11.55
2018-03-28T12:26:03.863Z,11.62
2018-03-28T12:27:03.849Z,11.43
2018-03-28T12:28:03.816Z,11.40
2018-03-28T12:29:03.814Z,11.29
2018-03-28T12:30:03.765Z,11.19
2018-03-28T12:31:03.735Z,11.32
2018-03-28T12:32:03.709Z,11.27
2018-03-28T12:33:03.687Z,11.25
2018-03-28T12:34:03.670Z,11.22
2018-03-28T12:35:03.638Z,11.26
2018-03-28T12:36:03.607Z,11.29
2018-03-28T12:37:03.580Z,11.30
2018-03-28T12:38:03.555Z,11.40
2018-03-28T12:39:03.530Z,11.45
2018-03-28T12:40:03.502Z,11.47
2018-03-28T12:41:03.481Z,11.26
2018-03-28T12:42:03.480Z,11.33
2018-03-28T12:43:03.423Z,11.35
2018-03-28T12:44:03.410Z,11.33
2018-03-28T12:45:03.378Z,11.33
2018-03-28T12:46:03.360Z,11.36
2018-03-28T12:47:03.330Z,11.45
2018-03-28T12:48:03.302Z,11.47
2018-03-28T12:49:03.281Z,11.40
2018-03-28T12:50:03.264Z,11.27
2018-03-28T12:51:03.229Z,11.23
2018-03-28T12:52:03.204Z,11.29
2018-03-28T12:53:03.175Z,11.32
2018-03-28T12:54:03.177Z,11.36
2018-03-28T12:55:03.128Z,11.41
2018-03-28T12:56:03.094Z,11.40
2018-03-28T12:57:03.111Z,11.43
2018-03-28T12:58:03.049Z,11.47
2018-03-28T12:59:03.025Z,11.47
2018-03-28T13:00:02.991Z,11.48
2018-03-28T13:01:02.975Z,11.43
2018-03-28T13:02:02.952Z,11.37
2018-03-28T13:03:02.930Z,11.47
2018-03-28T13:04:02.891Z,11.36
2018-03-28T13:05:02.874Z,11.40
2018-03-28T13:06:02.833Z,11.25
2018-03-28T13:07:02.816Z,11.25
2018-03-28T13:08:02.794Z,11.27
2018-03-28T13:09:02.780Z,11.25